VTUD

Udon Thani Airport

Udon Thani, Thailand
TAF VTUD 221100Z 2212/2312 09007KT 9999 FEW040
Issued Valid From Valid To
Jan-22 @ 11:00 UTC
(6 hours ago)
Jan-22 @ 12:00 UTC
(5 hours ago)
Jan-23 @ 12:00 UTC
(in 19 hours)
Jan-22 @ 12:00 to Jan-23 @ 12:00
TAF VTUD 221100Z 2212/2312 09007KT 9999 FEW040
Wind Visibility Clouds
90° at 7 knots 10,000+ meters
  • Few at 4,000' AGL
TAF VTUD 221100Z 2212/2312 09007KT 9999 FEW040
Issued Jan-22 @ 11:00 UTC
(6 hours ago)
Valid From Jan-22 @ 12:00 UTC
(5 hours ago)
Valid To Jan-23 @ 12:00 UTC
(in 19 hours)
Jan-22 @ 12:00 - Jan-23 @ 12:00
Wind Visibility
90° at 7 knots 10,000+ meters
Clouds
  • Few at 4,000' AGL